sensor_id;sensor_type;location;lat;lon;timestamp;pressure;altitude;pressure_sealevel;temperature;humidity
70254;BME280;57649;42.968;1.608;2023-04-06T00:00:18;97564.97;;;5.25;72.88
70254;BME280;57649;42.968;1.608;2023-04-06T00:02:43;97564.13;;;5.04;73.32
70254;BME280;57649;42.968;1.608;2023-04-06T00:05:09;97549.44;;;4.99;73.80
70254;BME280;57649;42.968;1.608;2023-04-06T00:07:34;97560.06;;;5.20;75.00
70254;BME280;57649;42.968;1.608;2023-04-06T00:10:00;97557.22;;;5.12;76.20
70254;BME280;57649;42.968;1.608;2023-04-06T00:12:25;97551.66;;;5.15;74.63
70254;BME280;57649;42.968;1.608;2023-04-06T00:14:51;97562.22;;;5.06;74.45
70254;BME280;57649;42.968;1.608;2023-04-06T00:17:16;97549.97;;;4.93;73.71
70254;BME280;57649;42.968;1.608;2023-04-06T00:19:42;97560.00;;;4.90;74.20
70254;BME280;57649;42.968;1.608;2023-04-06T00:22:07;97553.00;;;4.89;73.64
70254;BME280;57649;42.968;1.608;2023-04-06T00:24:32;97548.88;;;4.96;73.39
70254;BME280;57649;42.968;1.608;2023-04-06T00:26:58;97543.44;;;4.97;73.22
70254;BME280;57649;42.968;1.608;2023-04-06T00:29:23;97543.69;;;4.94;73.34
70254;BME280;57649;42.968;1.608;2023-04-06T00:31:48;97539.25;;;4.95;72.89
70254;BME280;57649;42.968;1.608;2023-04-06T00:34:14;97544.22;;;5.09;72.50
70254;BME280;57649;42.968;1.608;2023-04-06T00:36:41;97541.56;;;5.09;73.37
70254;BME280;57649;42.968;1.608;2023-04-06T00:39:06;97542.91;;;5.04;72.94
70254;BME280;57649;42.968;1.608;2023-04-06T00:41:32;97540.19;;;4.94;74.44
70254;BME280;57649;42.968;1.608;2023-04-06T00:43:57;97529.44;;;4.74;74.72
70254;BME280;57649;42.968;1.608;2023-04-06T00:46:23;97535.53;;;4.86;74.87
70254;BME280;57649;42.968;1.608;2023-04-06T00:48:48;97536.72;;;4.93;74.87
70254;BME280;57649;42.968;1.608;2023-04-06T00:51:14;97533.72;;;4.87;73.91
70254;BME280;57649;42.968;1.608;2023-04-06T00:53:39;97534.44;;;4.89;73.83
70254;BME280;57649;42.968;1.608;2023-04-06T00:56:05;97526.88;;;4.84;73.88
70254;BME280;57649;42.968;1.608;2023-04-06T00:58:31;97525.31;;;4.81;73.32
70254;BME280;57649;42.968;1.608;2023-04-06T01:00:57;97517.41;;;4.70;73.67
70254;BME280;57649;42.968;1.608;2023-04-06T01:03:23;97521.94;;;4.79;72.88
70254;BME280;57649;42.968;1.608;2023-04-06T01:05:48;97508.28;;;4.63;73.61
70254;BME280;57649;42.968;1.608;2023-04-06T01:08:14;97512.56;;;4.75;72.79
70254;BME280;57649;42.968;1.608;2023-04-06T01:10:39;97518.59;;;4.77;72.72
70254;BME280;57649;42.968;1.608;2023-04-06T01:13:05;97518.34;;;4.80;72.58
70254;BME280;57649;42.968;1.608;2023-04-06T01:15:33;97515.56;;;4.82;72.95
70254;BME280;57649;42.968;1.608;2023-04-06T01:17:59;97514.63;;;4.72;72.90
70254;BME280;57649;42.968;1.608;2023-04-06T01:20:24;97513.66;;;4.52;73.92
70254;BME280;57649;42.968;1.608;2023-04-06T01:22:49;97505.63;;;4.63;73.48
70254;BME280;57649;42.968;1.608;2023-04-06T01:25:15;97502.03;;;4.64;73.82
70254;BME280;57649;42.968;1.608;2023-04-06T01:27:40;97508.28;;;4.63;73.77
70254;BME280;57649;42.968;1.608;2023-04-06T01:30:06;97505.22;;;4.58;73.70
70254;BME280;57649;42.968;1.608;2023-04-06T01:32:32;97480.75;;;4.54;74.62
70254;BME280;57649;42.968;1.608;2023-04-06T01:34:58;97499.44;;;4.53;74.09
70254;BME280;57649;42.968;1.608;2023-04-06T01:37:23;97495.63;;;4.46;74.15
70254;BME280;57649;42.968;1.608;2023-04-06T01:39:49;97492.06;;;4.56;74.36
70254;BME280;57649;42.968;1.608;2023-04-06T01:42:15;97495.16;;;4.61;73.36
70254;BME280;57649;42.968;1.608;2023-04-06T01:44:40;97485.53;;;4.60;73.05
70254;BME280;57649;42.968;1.608;2023-04-06T01:47:06;97485.59;;;4.70;73.09
70254;BME280;57649;42.968;1.608;2023-04-06T01:49:31;97488.47;;;4.78;72.30
70254;BME280;57649;42.968;1.608;2023-04-06T01:51:56;97485.09;;;4.76;72.47
70254;BME280;57649;42.968;1.608;2023-04-06T01:54:22;97488.69;;;4.75;72.65
70254;BME280;57649;42.968;1.608;2023-04-06T01:56:47;97481.72;;;4.74;73.30
70254;BME280;57649;42.968;1.608;2023-04-06T01:59:15;97486.88;;;4.76;72.39
70254;BME280;57649;42.968;1.608;2023-04-06T02:01:40;97478.81;;;4.77;72.29
70254;BME280;57649;42.968;1.608;2023-04-06T02:04:06;97481.41;;;4.68;72.94
70254;BME280;57649;42.968;1.608;2023-04-06T02:06:31;97475.19;;;4.57;72.96
70254;BME280;57649;42.968;1.608;2023-04-06T02:08:57;97470.75;;;4.26;74.11
70254;BME280;57649;42.968;1.608;2023-04-06T02:11:22;97483.41;;;4.22;75.25
70254;BME280;57649;42.968;1.608;2023-04-06T02:13:47;97477.66;;;4.49;73.78
70254;BME280;57649;42.968;1.608;2023-04-06T02:16:13;97479.97;;;4.42;74.01
70254;BME280;57649;42.968;1.608;2023-04-06T02:18:38;97476.66;;;4.50;73.16
70254;BME280;57649;42.968;1.608;2023-04-06T02:21:04;97474.00;;;4.50;73.30
70254;BME280;57649;42.968;1.608;2023-04-06T02:23:29;97472.00;;;4.42;73.59
70254;BME280;57649;42.968;1.608;2023-04-06T02:25:55;97469.03;;;4.57;73.00
70254;BME280;57649;42.968;1.608;2023-04-06T02:28:20;97470.41;;;4.51;73.16
70254;BME280;57649;42.968;1.608;2023-04-06T02:30:45;97468.91;;;4.58;73.16
70254;BME280;57649;42.968;1.608;2023-04-06T02:33:11;97475.59;;;4.53;72.84
70254;BME280;57649;42.968;1.608;2023-04-06T02:35:37;97475.63;;;4.41;73.77
70254;BME280;57649;42.968;1.608;2023-04-06T02:38:02;97467.81;;;4.40;73.88
70254;BME280;57649;42.968;1.608;2023-04-06T02:40:27;97471.41;;;4.39;73.88
70254;BME280;57649;42.968;1.608;2023-04-06T02:42:53;97469.47;;;4.41;73.65
70254;BME280;57649;42.968;1.608;2023-04-06T02:45:18;97482.59;;;4.21;74.69
70254;BME280;57649;42.968;1.608;2023-04-06T02:47:44;97468.47;;;4.21;75.78
70254;BME280;57649;42.968;1.608;2023-04-06T02:50:09;97471.84;;;4.23;74.86
70254;BME280;57649;42.968;1.608;2023-04-06T02:52:35;97475.72;;;4.19;75.51
70254;BME280;57649;42.968;1.608;2023-04-06T02:55:00;97474.06;;;4.18;75.17
70254;BME280;57649;42.968;1.608;2023-04-06T02:57:26;97475.22;;;4.25;74.65
70254;BME280;57649;42.968;1.608;2023-04-06T02:59:51;97460.88;;;4.28;74.16
70254;BME280;57649;42.968;1.608;2023-04-06T03:02:16;97460.69;;;4.40;73.68
70254;BME280;57649;42.968;1.608;2023-04-06T03:04:42;97464.94;;;4.32;73.80
70254;BME280;57649;42.968;1.608;2023-04-06T03:07:08;97461.59;;;4.30;74.27
70254;BME280;57649;42.968;1.608;2023-04-06T03:09:33;97458.56;;;4.34;73.81
70254;BME280;57649;42.968;1.608;2023-04-06T03:11:59;97464.69;;;4.35;73.60
70254;BME280;57649;42.968;1.608;2023-04-06T03:14:27;97462.28;;;4.32;73.66
70254;BME280;57649;42.968;1.608;2023-04-06T03:16:52;97468.44;;;4.32;74.09
70254;BME280;57649;42.968;1.608;2023-04-06T03:19:17;97462.56;;;4.29;73.84
70254;BME280;57649;42.968;1.608;2023-04-06T03:21:43;97461.00;;;4.26;73.69
70254;BME280;57649;42.968;1.608;2023-04-06T03:24:08;97461.69;;;4.28;73.38
70254;BME280;57649;42.968;1.608;2023-04-06T03:26:34;97466.28;;;4.26;73.92
70254;BME280;57649;42.968;1.608;2023-04-06T03:28:59;97474.97;;;4.28;74.29
70254;BME280;57649;42.968;1.608;2023-04-06T03:31:26;97474.25;;;4.26;73.95
70254;BME280;57649;42.968;1.608;2023-04-06T03:33:51;97471.34;;;3.97;75.34
70254;BME280;57649;42.968;1.608;2023-04-06T03:36:17;97477.47;;;4.09;74.75
70254;BME280;57649;42.968;1.608;2023-04-06T03:38:42;97482.44;;;4.23;74.67
70254;BME280;57649;42.968;1.608;2023-04-06T03:41:07;97487.47;;;4.05;74.59
70254;BME280;57649;42.968;1.608;2023-04-06T03:43:33;97488.69;;;3.90;75.08
70254;BME280;57649;42.968;1.608;2023-04-06T03:45:58;97495.13;;;3.76;76.71
70254;BME280;57649;42.968;1.608;2023-04-06T03:48:23;97481.41;;;3.71;76.51
70254;BME280;57649;42.968;1.608;2023-04-06T03:50:49;97485.00;;;3.70;76.84
70254;BME280;57649;42.968;1.608;2023-04-06T03:53:14;97482.47;;;3.68;77.13
70254;BME280;57649;42.968;1.608;2023-04-06T03:55:40;97485.97;;;3.69;77.21
70254;BME280;57649;42.968;1.608;2023-04-06T03:58:05;97483.56;;;3.65;77.57
70254;BME280;57649;42.968;1.608;2023-04-06T04:00:31;97482.13;;;3.61;77.60
70254;BME280;57649;42.968;1.608;2023-04-06T04:02:58;97479.09;;;3.66;76.97
70254;BME280;57649;42.968;1.608;2023-04-06T04:05:23;97475.28;;;3.70;77.01
70254;BME280;57649;42.968;1.608;2023-04-06T04:07:51;97466.44;;;3.81;76.19
70254;BME280;57649;42.968;1.608;2023-04-06T04:10:17;97476.44;;;3.89;76.20
70254;BME280;57649;42.968;1.608;2023-04-06T04:12:42;97470.16;;;3.90;76.27
70254;BME280;57649;42.968;1.608;2023-04-06T04:15:08;97464.06;;;3.78;76.07
70254;BME280;57649;42.968;1.608;2023-04-06T04:17:33;97464.03;;;3.89;75.85
70254;BME280;57649;42.968;1.608;2023-04-06T04:19:59;97461.25;;;3.91;76.30
70254;BME280;57649;42.968;1.608;2023-04-06T04:22:24;97468.81;;;3.95;76.12
70254;BME280;57649;42.968;1.608;2023-04-06T04:24:49;97466.75;;;3.99;76.04
70254;BME280;57649;42.968;1.608;2023-04-06T04:27:15;97453.91;;;3.94;75.78
70254;BME280;57649;42.968;1.608;2023-04-06T04:29:40;97472.09;;;3.88;76.50
70254;BME280;57649;42.968;1.608;2023-04-06T04:32:06;97456.28;;;3.97;76.39
70254;BME280;57649;42.968;1.608;2023-04-06T04:34:31;97465.91;;;3.98;76.23
70254;BME280;57649;42.968;1.608;2023-04-06T04:36:57;97464.78;;;3.80;77.27
70254;BME280;57649;42.968;1.608;2023-04-06T04:39:23;97463.78;;;3.81;76.76
70254;BME280;57649;42.968;1.608;2023-04-06T04:41:48;97462.72;;;3.83;76.72
70254;BME280;57649;42.968;1.608;2023-04-06T04:44:14;97472.91;;;3.88;76.51
70254;BME280;57649;42.968;1.608;2023-04-06T04:46:40;97465.28;;;3.74;76.87
70254;BME280;57649;42.968;1.608;2023-04-06T04:49:06;97470.56;;;3.74;76.65
70254;BME280;57649;42.968;1.608;2023-04-06T04:51:32;97465.97;;;3.64;76.69
70254;BME280;57649;42.968;1.608;2023-04-06T04:53:58;97484.53;;;3.64;77.04
70254;BME280;57649;42.968;1.608;2023-04-06T04:56:23;97475.50;;;3.67;78.24
70254;BME280;57649;42.968;1.608;2023-04-06T04:58:48;97481.88;;;3.76;76.62
70254;BME280;57649;42.968;1.608;2023-04-06T05:01:14;97480.56;;;3.70;76.83
70254;BME280;57649;42.968;1.608;2023-04-06T05:03:39;97484.75;;;3.73;76.86
70254;BME280;57649;42.968;1.608;2023-04-06T05:06:05;97479.69;;;3.70;77.62
70254;BME280;57649;42.968;1.608;2023-04-06T05:08:31;97491.41;;;3.67;77.57
70254;BME280;57649;42.968;1.608;2023-04-06T05:10:57;97481.38;;;3.82;77.59
70254;BME280;57649;42.968;1.608;2023-04-06T05:13:22;97499.22;;;3.69;78.02
70254;BME280;57649;42.968;1.608;2023-04-06T05:15:48;97485.72;;;3.83;77.60
70254;BME280;57649;42.968;1.608;2023-04-06T05:18:13;97478.69;;;3.93;77.08
70254;BME280;57649;42.968;1.608;2023-04-06T05:20:39;97480.25;;;3.96;76.46
70254;BME280;57649;42.968;1.608;2023-04-06T05:23:04;97480.69;;;4.12;75.86
70254;BME280;57649;42.968;1.608;2023-04-06T05:25:30;97480.53;;;4.25;74.69
70254;BME280;57649;42.968;1.608;2023-04-06T05:27:56;97472.59;;;4.14;74.03
70254;BME280;57649;42.968;1.608;2023-04-06T05:30:22;97472.94;;;4.20;73.44
70254;BME280;57649;42.968;1.608;2023-04-06T05:32:47;97479.41;;;4.28;73.41
70254;BME280;57649;42.968;1.608;2023-04-06T05:35:13;97470.38;;;4.30;73.64
70254;BME280;57649;42.968;1.608;2023-04-06T05:37:38;97474.97;;;4.28;74.14
70254;BME280;57649;42.968;1.608;2023-04-06T05:40:05;97483.31;;;4.44;73.89
70254;BME280;57649;42.968;1.608;2023-04-06T05:42:41;97488.16;;;4.39;73.78
70254;BME280;57649;42.968;1.608;2023-04-06T05:45:08;97493.38;;;4.30;74.51
70254;BME280;57649;42.968;1.608;2023-04-06T05:47:34;97501.72;;;4.25;74.97
70254;BME280;57649;42.968;1.608;2023-04-06T05:50:00;97490.84;;;4.28;74.84
70254;BME280;57649;42.968;1.608;2023-04-06T05:52:25;97485.91;;;4.35;74.13
70254;BME280;57649;42.968;1.608;2023-04-06T05:54:51;97489.25;;;4.37;75.14
70254;BME280;57649;42.968;1.608;2023-04-06T05:57:16;97483.78;;;4.50;74.90
70254;BME280;57649;42.968;1.608;2023-04-06T05:59:42;97486.66;;;4.58;73.79
70254;BME280;57649;42.968;1.608;2023-04-06T06:02:08;97491.09;;;4.57;72.77
70254;BME280;57649;42.968;1.608;2023-04-06T06:04:33;97499.56;;;4.51;73.03
70254;BME280;57649;42.968;1.608;2023-04-06T06:06:59;97490.25;;;4.57;72.63
70254;BME280;57649;42.968;1.608;2023-04-06T06:09:24;97510.00;;;4.64;73.10
70254;BME280;57649;42.968;1.608;2023-04-06T06:11:50;97500.56;;;4.71;72.31
70254;BME280;57649;42.968;1.608;2023-04-06T06:14:16;97512.38;;;4.67;72.76
70254;BME280;57649;42.968;1.608;2023-04-06T06:16:42;97514.88;;;4.69;74.12
70254;BME280;57649;42.968;1.608;2023-04-06T06:19:08;97512.03;;;4.81;72.65
70254;BME280;57649;42.968;1.608;2023-04-06T06:21:33;97512.03;;;4.81;72.72
70254;BME280;57649;42.968;1.608;2023-04-06T06:23:59;97512.78;;;4.84;72.63
70254;BME280;57649;42.968;1.608;2023-04-06T06:26:25;97514.31;;;4.86;72.52
70254;BME280;57649;42.968;1.608;2023-04-06T06:28:50;97525.66;;;4.88;72.44
70254;BME280;57649;42.968;1.608;2023-04-06T06:31:16;97523.19;;;4.96;71.54
70254;BME280;57649;42.968;1.608;2023-04-06T06:33:41;97535.41;;;5.09;70.92
70254;BME280;57649;42.968;1.608;2023-04-06T06:36:07;97538.91;;;5.09;72.23
70254;BME280;57649;42.968;1.608;2023-04-06T06:38:32;97546.94;;;5.19;70.88
70254;BME280;57649;42.968;1.608;2023-04-06T06:40:58;97540.97;;;5.27;71.62
70254;BME280;57649;42.968;1.608;2023-04-06T06:43:23;97549.53;;;5.09;72.12
70254;BME280;57649;42.968;1.608;2023-04-06T06:45:49;97546.88;;;5.09;71.41
70254;BME280;57649;42.968;1.608;2023-04-06T06:48:15;97562.06;;;5.07;71.10
70254;BME280;57649;42.968;1.608;2023-04-06T06:50:40;97548.09;;;5.05;70.59
70254;BME280;57649;42.968;1.608;2023-04-06T06:53:06;97554.63;;;5.22;70.16
70254;BME280;57649;42.968;1.608;2023-04-06T06:55:31;97569.19;;;5.28;69.55
70254;BME280;57649;42.968;1.608;2023-04-06T06:57:57;97555.50;;;5.53;69.56
70254;BME280;57649;42.968;1.608;2023-04-06T07:00:22;97559.31;;;5.61;67.93
70254;BME280;57649;42.968;1.608;2023-04-06T07:02:48;97568.94;;;5.62;66.92
70254;BME280;57649;42.968;1.608;2023-04-06T07:05:14;97569.47;;;5.86;66.73
70254;BME280;57649;42.968;1.608;2023-04-06T07:07:40;97562.69;;;6.03;66.73
70254;BME280;57649;42.968;1.608;2023-04-06T07:10:07;97548.16;;;6.07;66.38
70254;BME280;57649;42.968;1.608;2023-04-06T07:12:33;97557.59;;;6.31;66.79
70254;BME280;57649;42.968;1.608;2023-04-06T07:14:58;97570.75;;;6.52;66.85
70254;BME280;57649;42.968;1.608;2023-04-06T07:17:23;97562.50;;;6.55;66.29
70254;BME280;57649;42.968;1.608;2023-04-06T07:19:49;97560.00;;;6.73;65.89
70254;BME280;57649;42.968;1.608;2023-04-06T07:22:14;97572.75;;;6.89;64.40
70254;BME280;57649;42.968;1.608;2023-04-06T07:24:40;97576.66;;;6.85;64.41
70254;BME280;57649;42.968;1.608;2023-04-06T07:27:05;97579.03;;;7.07;63.57
70254;BME280;57649;42.968;1.608;2023-04-06T07:29:31;97587.81;;;7.18;61.99
70254;BME280;57649;42.968;1.608;2023-04-06T07:31:56;97583.91;;;7.31;61.56
70254;BME280;57649;42.968;1.608;2023-04-06T07:34:22;97582.06;;;7.32;61.37
70254;BME280;57649;42.968;1.608;2023-04-06T07:36:48;97593.97;;;7.47;60.58
70254;BME280;57649;42.968;1.608;2023-04-06T07:39:13;97590.81;;;7.62;59.82
70254;BME280;57649;42.968;1.608;2023-04-06T07:41:39;97598.50;;;7.75;59.43
70254;BME280;57649;42.968;1.608;2023-04-06T07:44:05;97589.88;;;7.90;59.86
70254;BME280;57649;42.968;1.608;2023-04-06T07:46:31;97585.94;;;7.95;59.67
70254;BME280;57649;42.968;1.608;2023-04-06T07:48:57;97587.63;;;7.96;59.26
70254;BME280;57649;42.968;1.608;2023-04-06T07:51:23;97593.25;;;7.93;59.30
70254;BME280;57649;42.968;1.608;2023-04-06T07:53:48;97582.28;;;7.96;60.17
70254;BME280;57649;42.968;1.608;2023-04-06T07:56:15;97591.03;;;8.16;59.00
70254;BME280;57649;42.968;1.608;2023-04-06T07:58:41;97593.94;;;8.22;57.84
70254;BME280;57649;42.968;1.608;2023-04-06T08:01:06;97596.41;;;8.34;57.59
70254;BME280;57649;42.968;1.608;2023-04-06T08:03:33;97606.69;;;8.56;58.47
70254;BME280;57649;42.968;1.608;2023-04-06T08:05:59;97599.53;;;8.75;57.94
70254;BME280;57649;42.968;1.608;2023-04-06T08:08:25;97597.25;;;8.80;57.52
70254;BME280;57649;42.968;1.608;2023-04-06T08:10:50;97595.53;;;8.89;56.57
70254;BME280;57649;42.968;1.608;2023-04-06T08:13:16;97599.69;;;9.09;56.36
70254;BME280;57649;42.968;1.608;2023-04-06T08:15:41;97598.94;;;9.17;55.31
70254;BME280;57649;42.968;1.608;2023-04-06T08:18:08;97597.06;;;9.35;55.63
70254;BME280;57649;42.968;1.608;2023-04-06T08:20:34;97594.25;;;9.37;55.11
70254;BME280;57649;42.968;1.608;2023-04-06T08:23:00;97592.34;;;9.55;54.37
70254;BME280;57649;42.968;1.608;2023-04-06T08:25:25;97581.38;;;9.58;54.05
70254;BME280;57649;42.968;1.608;2023-04-06T08:27:51;97593.16;;;9.48;54.25
70254;BME280;57649;42.968;1.608;2023-04-06T08:30:17;97593.94;;;9.66;54.12
70254;BME280;57649;42.968;1.608;2023-04-06T08:32:44;97599.69;;;9.79;53.48
70254;BME280;57649;42.968;1.608;2023-04-06T08:35:09;97590.44;;;10.00;53.91
70254;BME280;57649;42.968;1.608;2023-04-06T08:37:35;97586.25;;;9.97;53.56
70254;BME280;57649;42.968;1.608;2023-04-06T08:40:00;97597.03;;;10.14;52.72
70254;BME280;57649;42.968;1.608;2023-04-06T08:42:33;97595.69;;;10.18;52.06
70254;BME280;57649;42.968;1.608;2023-04-06T08:45:04;97596.81;;;10.42;52.35
70254;BME280;57649;42.968;1.608;2023-04-06T08:47:30;97584.16;;;10.52;52.40
70254;BME280;57649;42.968;1.608;2023-04-06T08:49:56;97580.34;;;10.71;51.57
70254;BME280;57649;42.968;1.608;2023-04-06T08:52:22;97571.97;;;10.82;51.57
70254;BME280;57649;42.968;1.608;2023-04-06T08:54:50;97564.44;;;10.86;51.42
70254;BME280;57649;42.968;1.608;2023-04-06T08:57:16;97566.63;;;10.98;49.70
70254;BME280;57649;42.968;1.608;2023-04-06T08:59:42;97567.66;;;10.97;49.16
70254;BME280;57649;42.968;1.608;2023-04-06T09:02:15;97562.47;;;11.12;48.89
70254;BME280;57649;42.968;1.608;2023-04-06T09:04:42;97558.78;;;11.22;48.57
70254;BME280;57649;42.968;1.608;2023-04-06T09:07:08;97570.97;;;11.41;49.19
70254;BME280;57649;42.968;1.608;2023-04-06T09:09:33;97568.81;;;11.44;47.87
70254;BME280;57649;42.968;1.608;2023-04-06T09:11:59;97569.59;;;11.61;48.40
70254;BME280;57649;42.968;1.608;2023-04-06T09:14:37;97563.94;;;11.56;48.29
70254;BME280;57649;42.968;1.608;2023-04-06T09:17:04;97568.81;;;11.52;48.22
70254;BME280;57649;42.968;1.608;2023-04-06T09:19:30;97558.06;;;11.69;48.42
70254;BME280;57649;42.968;1.608;2023-04-06T09:22:05;97572.44;;;11.76;48.37
70254;BME280;57649;42.968;1.608;2023-04-06T09:24:58;97570.81;;;11.42;48.83
70254;BME280;57649;42.968;1.608;2023-04-06T09:27:34;97576.16;;;11.59;48.22
70254;BME280;57649;42.968;1.608;2023-04-06T09:30:07;97578.34;;;11.63;47.55
70254;BME280;57649;42.968;1.608;2023-04-06T09:32:54;97584.31;;;11.98;48.12
70254;BME280;57649;42.968;1.608;2023-04-06T09:35:20;97581.09;;;12.11;47.08
70254;BME280;57649;42.968;1.608;2023-04-06T09:37:51;97573.94;;;12.35;47.08
70254;BME280;57649;42.968;1.608;2023-04-06T09:40:17;97571.03;;;12.76;45.32
70254;BME280;57649;42.968;1.608;2023-04-06T09:42:50;97571.88;;;12.99;45.33
70254;BME280;57649;42.968;1.608;2023-04-06T09:45:17;97572.03;;;12.98;44.26
70254;BME280;57649;42.968;1.608;2023-04-06T09:47:44;97564.88;;;13.13;43.37
70254;BME280;57649;42.968;1.608;2023-04-06T09:50:11;97565.06;;;13.12;43.58
70254;BME280;57649;42.968;1.608;2023-04-06T09:52:41;97559.22;;;13.31;43.19
70254;BME280;57649;42.968;1.608;2023-04-06T09:55:08;97565.25;;;13.48;43.47
70254;BME280;57649;42.968;1.608;2023-04-06T09:57:37;97565.41;;;13.84;42.42
70254;BME280;57649;42.968;1.608;2023-04-06T10:00:07;97564.09;;;13.65;43.89
70254;BME280;57649;42.968;1.608;2023-04-06T10:03:07;97566.81;;;13.95;44.41
70254;BME280;57649;42.968;1.608;2023-04-06T10:08:11;97557.78;;;13.88;44.57
70254;BME280;57649;42.968;1.608;2023-04-06T10:10:38;97570.69;;;13.63;44.97
70254;BME280;57649;42.968;1.608;2023-04-06T10:13:04;97549.25;;;13.70;46.34
70254;BME280;57649;42.968;1.608;2023-04-06T10:15:30;97561.28;;;13.44;46.76
70254;BME280;57649;42.968;1.608;2023-04-06T10:17:57;97559.22;;;13.46;48.54
70254;BME280;57649;42.968;1.608;2023-04-06T10:20:39;97563.13;;;13.43;48.99
70254;BME280;57649;42.968;1.608;2023-04-06T10:23:32;97555.84;;;13.52;49.78
70254;BME280;57649;42.968;1.608;2023-04-06T10:26:00;97554.09;;;13.89;50.02
70254;BME280;57649;42.968;1.608;2023-04-06T10:28:31;97553.34;;;13.95;49.53
70254;BME280;57649;42.968;1.608;2023-04-06T10:31:01;97555.31;;;14.01;49.95
70254;BME280;57649;42.968;1.608;2023-04-06T10:33:27;97558.28;;;14.21;49.86
70254;BME280;57649;42.968;1.608;2023-04-06T10:35:53;97560.50;;;14.18;49.34
70254;BME280;57649;42.968;1.608;2023-04-06T10:38:20;97561.97;;;14.20;48.83
70254;BME280;57649;42.968;1.608;2023-04-06T10:40:48;97568.47;;;13.96;48.64
70254;BME280;57649;42.968;1.608;2023-04-06T10:43:22;97562.34;;;14.17;49.94
70254;BME280;57649;42.968;1.608;2023-04-06T10:45:59;97557.22;;;14.37;49.41
70254;BME280;57649;42.968;1.608;2023-04-06T10:48:36;97558.75;;;14.47;48.19
70254;BME280;57649;42.968;1.608;2023-04-06T10:51:07;97555.56;;;14.36;49.03
70254;BME280;57649;42.968;1.608;2023-04-06T10:53:33;97549.06;;;14.31;50.06
70254;BME280;57649;42.968;1.608;2023-04-06T10:55:59;97557.59;;;14.34;48.09
70254;BME280;57649;42.968;1.608;2023-04-06T10:58:27;97558.06;;;14.38;49.06
70254;BME280;57649;42.968;1.608;2023-04-06T11:00:53;97555.56;;;14.21;48.87
70254;BME280;57649;42.968;1.608;2023-04-06T11:03:19;97551.44;;;14.40;48.21
70254;BME280;57649;42.968;1.608;2023-04-06T11:05:45;97549.75;;;14.54;46.66
70254;BME280;57649;42.968;1.608;2023-04-06T11:08:33;97555.41;;;14.59;46.48
70254;BME280;57649;42.968;1.608;2023-04-06T11:11:08;97557.22;;;14.37;46.80
70254;BME280;57649;42.968;1.608;2023-04-06T11:16:06;97549.75;;;14.54;47.04
70254;BME280;57649;42.968;1.608;2023-04-06T11:18:31;97553.09;;;14.71;44.95
70254;BME280;57649;42.968;1.608;2023-04-06T11:20:57;97549.97;;;14.74;45.23
70254;BME280;57649;42.968;1.608;2023-04-06T11:23:25;97549.50;;;14.86;44.54
70254;BME280;57649;42.968;1.608;2023-04-06T11:25:53;97552.88;;;15.16;44.44
70254;BME280;57649;42.968;1.608;2023-04-06T11:28:19;97548.53;;;14.93;44.29
70254;BME280;57649;42.968;1.608;2023-04-06T11:30:45;97542.56;;;14.98;44.93
70254;BME280;57649;42.968;1.608;2023-04-06T11:33:20;97545.06;;;15.49;43.31
70254;BME280;57649;42.968;1.608;2023-04-06T11:35:46;97540.03;;;15.96;40.64
70254;BME280;57649;42.968;1.608;2023-04-06T11:38:11;97532.91;;;16.23;40.16
70254;BME280;57649;42.968;1.608;2023-04-06T11:40:37;97532.28;;;16.28;41.52
70254;BME280;57649;42.968;1.608;2023-04-06T11:43:03;97535.50;;;16.10;41.45
70254;BME280;57649;42.968;1.608;2023-04-06T11:45:39;97524.22;;;16.34;40.46
70254;BME280;57649;42.968;1.608;2023-04-06T11:48:05;97512.00;;;16.52;39.45
70254;BME280;57649;42.968;1.608;2023-04-06T11:50:33;97524.06;;;16.49;39.41
70254;BME280;57649;42.968;1.608;2023-04-06T11:53:01;97514.31;;;16.68;38.87
70254;BME280;57649;42.968;1.608;2023-04-06T11:55:27;97507.69;;;16.58;39.78
70254;BME280;57649;42.968;1.608;2023-04-06T11:57:53;97510.63;;;16.76;39.84
70254;BME280;57649;42.968;1.608;2023-04-06T12:00:20;97503.41;;;16.83;39.87
70254;BME280;57649;42.968;1.608;2023-04-06T12:02:49;97495.84;;;16.72;39.11
70254;BME280;57649;42.968;1.608;2023-04-06T12:05:15;97496.75;;;16.99;38.43
70254;BME280;57649;42.968;1.608;2023-04-06T12:07:40;97492.38;;;17.11;37.09
70254;BME280;57649;42.968;1.608;2023-04-06T12:10:06;97493.03;;;17.20;36.16
70254;BME280;57649;42.968;1.608;2023-04-06T12:12:32;97497.38;;;17.35;37.21
70254;BME280;57649;42.968;1.608;2023-04-06T12:14:58;97499.47;;;17.26;36.87
70254;BME280;57649;42.968;1.608;2023-04-06T12:17:23;97495.09;;;17.31;37.38
70254;BME280;57649;42.968;1.608;2023-04-06T12:19:49;97488.22;;;17.42;36.52
70254;BME280;57649;42.968;1.608;2023-04-06T12:22:15;97484.19;;;17.78;36.57
70254;BME280;57649;42.968;1.608;2023-04-06T12:24:41;97481.50;;;17.85;36.07
70254;BME280;57649;42.968;1.608;2023-04-06T12:27:06;97472.63;;;17.31;38.15
70254;BME280;57649;42.968;1.608;2023-04-06T12:29:32;97478.66;;;17.13;38.75
70254;BME280;57649;42.968;1.608;2023-04-06T12:31:57;97477.94;;;16.64;38.19
70254;BME280;57649;42.968;1.608;2023-04-06T12:34:23;97470.13;;;17.23;37.97
70254;BME280;57649;42.968;1.608;2023-04-06T12:36:48;97459.06;;;17.44;38.01
70254;BME280;57649;42.968;1.608;2023-04-06T12:39:14;97464.28;;;17.39;38.38
70254;BME280;57649;42.968;1.608;2023-04-06T12:41:39;97465.94;;;17.34;37.40
70254;BME280;57649;42.968;1.608;2023-04-06T12:44:07;97471.19;;;17.22;35.82
70254;BME280;57649;42.968;1.608;2023-04-06T12:46:33;97463.66;;;17.44;37.02
70254;BME280;57649;42.968;1.608;2023-04-06T12:48:59;97467.22;;;17.31;38.49
70254;BME280;57649;42.968;1.608;2023-04-06T12:51:27;97462.56;;;17.65;39.34
70254;BME280;57649;42.968;1.608;2023-04-06T12:53:53;97465.50;;;17.50;37.39
70254;BME280;57649;42.968;1.608;2023-04-06T12:56:18;97467.59;;;17.01;38.18
70254;BME280;57649;42.968;1.608;2023-04-06T12:58:44;97465.72;;;17.42;36.13
70254;BME280;57649;42.968;1.608;2023-04-06T13:01:10;97478.00;;;17.38;37.81
70254;BME280;57649;42.968;1.608;2023-04-06T13:03:40;97457.66;;;17.02;37.63
70254;BME280;57649;42.968;1.608;2023-04-06T13:06:06;97472.63;;;17.04;39.07
70254;BME280;57649;42.968;1.608;2023-04-06T13:08:33;97472.19;;;16.94;40.07